Strait of Georgia - north of Nanaimo: Past 24 Hour Conditions

 

La Perouse Bank - 46206

09:00 PM PDT 20 October 2014Buoy position: 48.83N 126.0W
This table is a summary of hourly weather conditions for the past 24 hours.
Date / Time
(PDT)
Wind(knots) Wave height(m) Wave period(s) Pressure(kPa) Air tempC) Water tempC)
20 October 2014
21:00 SW 10 gust 14 3.7 13.0 100.5 14 13
20:00 S 10 gust 12 3.8 14.0 100.5 14 13
19:00 SSE 10 gust 12 4.0 14.0 100.5 14 13
18:00 SSE 8 gust 12 3.9 14.0 100.5 14 13
17:00 SSE 8 gust 10 3.8 14.0 100.5 14 13
16:00 SSE 8 gust 12 3.7 15.0 100.5 14 13
15:00 S 8 gust 10 3.3 15.0 100.5 14 13
14:00 S 8 gust 10 3.2 15.0 100.5 14 13
13:00 SSE 12 gust 14 3.1 15.0 100.5 15 14
12:00 SSE 10 gust 12 3.1 10.0 100.5 15 14
11:00 S 10 gust 12 3.4 15.0 100.5 15 14
10:00 SSE 8 gust 12 3.1 10.0 100.4 15 14
9:00 SSE 10 gust 12 3.2 14.0 100.4 14 14
8:00 ESE 4 gust 8 3.5 14.0 100.3 14 14
7:00 SE 8 gust 10 3.5 13.0 100.3 14 14
6:00 SE 8 gust 12 3.8 14.0 100.3 13 13
5:00 SSE 8 gust 10 3.9 15.0 100.3 13 13
4:00 S 10 gust 12 3.7 15.0 100.2 13 13
3:00 S 16 gust 19 4.1 14.0 100.3 14 13
2:00 S 18 gust 19 3.9 8.0 100.2 14 13
1:00 SSE 18 gust 21 4.1 10.0 100.2 14 13
0:00 SE 12 gust 16 4.0 10.0 100.2 13 13
19 October 2014
23:00 SSE 16 gust 18 4.2 10.0 100.2 14 13
22:00 SSE 14 gust 18 4.3 11.0 100.3 14 13
21:00 N/A N/A N/A N/A N/A N/A
 
Map of Pacific - South Coast marine weather areas Tsawwassen Ferry Terminal South Nomad - 46036 Sentry Shoal - 46131 South Brooks - 46132 Halibut Bank - 46146 South Moresby - 46147 South Hecate Strait - 46185 West Sea Otter - 46204 La Perouse Bank - 46206 East Dellwood - 46207 Discovery Island Esquimalt Harbour Kelp Reefs Malahat Race Rocks Lightstation Saturna Island Sheringham Point University of Victoria Victoria Gonzales Victoria Int'l Airport Ballenas Islands Campbell River Airport Comox Airport Entrance Island Fanny Island Nanaimo Airport Port Hardy Airport Sisters Islets Estevan Point Sartine Island Solander Island Tofino Airport Grief Point Powell River Airport Sechelt Cape St.James Bella Bella Airport Bella Coola Airport Cathedral Point Herbert Island Point Atkinson Sand Heads Lightstation Vancouver Harbour Vancouver Int'l Airport West Vancouver Port Alberni Howe Sound - Pam Rocks Squamish Airport